Map

Track Data

SID SEASON NUMBER BASIN SUBBASIN NAME ISO_TIME NATURE LAT LON WMO_WIND WMO_PRES WMO_AGENCY TRACK_TYPE DIST2LAND LANDFALL IFLAG USA_AGENCY USA_ATCF_ID USA_LAT USA_LON USA_RECORD USA_STATUS USA_WIND USA_PRES USA_SSHS USA_R34_NE USA_R34_SE USA_R34_SW USA_R34_NW USA_R50_NE USA_R50_SE USA_R50_SW USA_R50_NW USA_R64_NE USA_R64_SE USA_R64_SW USA_R64_NW USA_POCI USA_ROCI USA_RMW USA_EYE TOKYO_LAT TOKYO_LON TOKYO_GRADE TOKYO_WIND TOKYO_PRES TOKYO_R50_DIR TOKYO_R50_LONG TOKYO_R50_SHORT TOKYO_R30_DIR TOKYO_R30_LONG TOKYO_R30_SHORT TOKYO_LAND CMA_LAT CMA_LON CMA_CAT CMA_WIND CMA_PRES HKO_LAT HKO_LON HKO_CAT HKO_WIND HKO_PRES NEWDELHI_LAT NEWDELHI_LON NEWDELHI_GRADE NEWDELHI_WIND NEWDELHI_PRES NEWDELHI_CI NEWDELHI_DP NEWDELHI_POCI REUNION_LAT REUNION_LON REUNION_TYPE REUNION_WIND REUNION_PRES REUNION_TNUM REUNION_CI REUNION_RMW REUNION_R34_NE REUNION_R34_SE REUNION_R34_SW REUNION_R34_NW REUNION_R50_NE REUNION_R50_SE REUNION_R50_SW REUNION_R50_NW REUNION_R64_NE REUNION_R64_SE REUNION_R64_SW REUNION_R64_NW BOM_LAT BOM_LON BOM_TYPE BOM_WIND BOM_PRES BOM_TNUM BOM_CI BOM_RMW BOM_R34_NE BOM_R34_SE BOM_R34_SW BOM_R34_NW BOM_R50_NE BOM_R50_SE BOM_R50_SW BOM_R50_NW BOM_R64_NE BOM_R64_SE BOM_R64_SW BOM_R64_NW BOM_ROCI BOM_POCI BOM_EYE BOM_POS_METHOD BOM_PRES_METHOD NADI_LAT NADI_LON NADI_CAT NADI_WIND NADI_PRES WELLINGTON_LAT WELLINGTON_LON WELLINGTON_WIND WELLINGTON_PRES DS824_LAT DS824_LON DS824_STAGE DS824_WIND DS824_PRES TD9636_LAT TD9636_LON TD9636_STAGE TD9636_WIND TD9636_PRES TD9635_LAT TD9635_LON TD9635_WIND TD9635_PRES TD9635_ROCI NEUMANN_LAT NEUMANN_LON NEUMANN_CLASS NEUMANN_WIND NEUMANN_PRES MLC_LAT MLC_LON MLC_CLASS MLC_WIND MLC_PRES USA_GUST BOM_GUST BOM_GUST_PER REUNION_GUST REUNION_GUST_PER USA_SEAHGT USA_SEARAD_NE USA_SEARAD_SE USA_SEARAD_SW USA_SEARAD_NW STORM_SPEED STORM_DIR
1904042S14055 1904 2 SI MM NOT_NAMED 1904-02-11 00:00:00 TS -14.0000 54.7000 spur-merge 471 434 _________O____ -1 -14.0000 54.7000 TC 8 231
1904042S14055 1904 2 SI MM NOT_NAMED 1904-02-11 03:00:00 TS -14.2426 54.3877 spur-merge 434 394 _________P____ -1 -14.2426 54.3877 TC 8 229
1904042S14055 1904 2 SI MM NOT_NAMED 1904-02-11 06:00:00 TS -14.5000 54.1000 spur-merge 394 368 _________O____ -1 -14.5000 54.1000 TC 8 224
1904042S14055 1904 2 SI MM NOT_NAMED 1904-02-11 09:00:00 TS -14.7849 53.8499 spur-merge 357 333 _________P____ -1 -14.7849 53.8499 TC 8 219
1904042S14055 1904 2 SI MM NOT_NAMED 1904-02-11 12:00:00 TS -15.1000 53.6000 spur-merge 333 300 _________O____ -1 -15.1000 53.6000 TC 9 219
1904042S14055 1904 2 SI MM NOT_NAMED 1904-02-11 15:00:00 TS -15.4425 53.2925 spur-merge 300 270 _________P____ -1 -15.4425 53.2925 TC 9 220
1904042S14055 1904 2 SI MM NOT_NAMED 1904-02-11 18:00:00 TS -15.8000 53.0000 spur-merge 271 255 _________O____ -1 -15.8000 53.0000 TC 9 215
1904042S14055 1904 2 SI MM NOT_NAMED 1904-02-11 21:00:00 TS -16.1650 52.7700 spur-merge 261 250 _________P____ -1 -16.1650 52.7700 TC 8 209
1904042S14055 1904 2 SI MM NOT_NAMED 1904-02-12 00:00:00 TS -16.5000 52.6000 spur-merge 255 250 _________O____ -1 -16.5000 52.6000 TC 7 205
1904042S14055 1904 2 SI MM NOT_NAMED 1904-02-12 03:00:00 TS -16.7650 52.4774 spur-merge 260 250 _________P____ -1 -16.7650 52.4774 TC 5 201
1904042S14055 1904 2 SI MM NOT_NAMED 1904-02-12 06:00:00 TS -17.0000 52.4000 spur-merge 259 259 _________O____ -1 -17.0000 52.4000 TC 5 196
1904042S14055 1904 2 SI MM NOT_NAMED 1904-02-12 09:00:00 TS -17.2425 52.3425 spur-merge 261 261 _________P____ -1 -17.2425 52.3425 TC 5 191
1904042S14055 1904 2 SI MM NOT_NAMED 1904-02-12 12:00:00 TS -17.5000 52.3000 spur-merge 276 276 _________O____ -1 -17.5000 52.3000 TC 6 189
1904042S14055 1904 2 SI MM NOT_NAMED 1904-02-12 15:00:00 TS -17.7925 52.2500 spur-merge 278 278 _________P____ -1 -17.7925 52.2500 TC 6 189
1904042S14055 1904 2 SI MM NOT_NAMED 1904-02-12 18:00:00 TS -18.1000 52.2000 spur-merge 289 285 _________O____ -1 -18.1000 52.2000 TC 6 190
1904042S14055 1904 2 SI MM NOT_NAMED 1904-02-12 21:00:00 TS -18.3850 52.1425 spur-merge 285 285 _________P____ -1 -18.3850 52.1425 TC 6 189
1904042S14055 1904 2 SI MM NOT_NAMED 1904-02-13 00:00:00 TS -18.7000 52.1000 spur-merge 290 290 _________O____ -1 -18.7000 52.1000 TC 7 183
1904042S14055 1904 2 SI MM NOT_NAMED 1904-02-13 03:00:00 TS -19.0850 52.0925 spur-merge 301 301 _________P____ -1 -19.0850 52.0925 TC 8 179
1904042S14055 1904 2 SI MM NOT_NAMED 1904-02-13 06:00:00 TS -19.5000 52.1000 spur-merge 317 317 _________O____ -1 -19.5000 52.1000 TC 8 0
1904042S14055 1904 2 SI MM NOT_NAMED 1904-02-13 09:00:00 TS -19.9075 52.0926 spur-merge 330 330 _________P____ -1 -19.9075 52.0926 TC 8 179
1904042S14055 1904 2 SI MM NOT_NAMED 1904-02-13 12:00:00 TS -20.3000 52.1000 spur-merge 334 326 _________O____ -1 -20.3000 52.1000 TC 8 178
1904042S14055 1904 2 SI MM NOT_NAMED 1904-02-13 15:00:00 TS -20.6575 52.1425 spur-merge 325 311 _________P____ -1 -20.6575 52.1425 TC 7 172
1904042S14055 1904 2 SI MM NOT_NAMED 1904-02-13 18:00:00 TS -21.0000 52.2000 spur-merge 311 311 _________O____ -1 -21.0000 52.2000 TC 7 172
1904042S14055 1904 2 SI MM NOT_NAMED 1904-02-13 21:00:00 TS -21.3650 52.2426 spur-merge 312 302 _________P____ -1 -21.3650 52.2426 TC 7 172
1904042S14055 1904 2 SI MM NOT_NAMED 1904-02-14 00:00:00 TS -21.7000 52.3000 spur-merge 307 303 _________O____ -1 -21.7000 52.3000 TC 6 167
1904042S14055 1904 2 SI MM NOT_NAMED 1904-02-14 03:00:00 TS -21.9650 52.3925 spur-merge 306 300 _________P____ -1 -21.9650 52.3925 TC 5 160
1904042S14055 1904 2 SI MM NOT_NAMED 1904-02-14 06:00:00 TS -22.2000 52.5000 spur-merge 304 300 _________O____ -1 -22.2000 52.5000 TC 5 158
1904042S14055 1904 2 SI MM NOT_NAMED 1904-02-14 09:00:00 TS -22.4575 52.6000 spur-merge 309 304 _________P____ -1 -22.4575 52.6000 TC 5 160
1904042S14055 1904 2 SI MM NOT_NAMED 1904-02-14 12:00:00 TS -22.7000 52.7000 spur-merge 310 307 _________O____ -1 -22.7000 52.7000 TC 5 158
1904042S14055 1904 2 SI MM NOT_NAMED 1904-02-14 15:00:00 TS -22.9000 52.7926 spur-merge 313 311 _________P____ -1 -22.9000 52.7926 TC 4 155
1904042S14055 1904 2 SI MM NOT_NAMED 1904-02-14 18:00:00 TS -23.1000 52.9000 spur-merge 318 317 _________O____ -1 -23.1000 52.9000 TC 5 152
1904042S14055 1904 2 SI MM NOT_NAMED 1904-02-14 21:00:00 TS -23.3425 53.0500 spur-merge 325 325 _________P____ -1 -23.3425 53.0500 TC 6 151
1904042S14055 1904 2 SI MM NOT_NAMED 1904-02-15 00:00:00 TS -23.6000 53.2000 spur-merge 335 335 _________O____ -1 -23.6000 53.2000 TC 6 156
1904042S14055 1904 2 SI MM NOT_NAMED 1904-02-15 03:00:00 TS -23.8575 53.3001 spur-merge 355 355 _________P____ -1 -23.8575 53.3001 TC 5 160
1904042S14055 1904 2 SI MM NOT_NAMED 1904-02-15 06:00:00 TS -24.1000 53.4000 spur-merge 368 368 _________O____ -1 -24.1000 53.4000 TC 5 154
1904042S14055 1904 2 SI MM NOT_NAMED 1904-02-15 09:00:00 TS -24.3075 53.5425 spur-merge 382 377 _________P____ -1 -24.3075 53.5425 TC 5 146
1904042S14055 1904 2 SI MM NOT_NAMED 1904-02-15 12:00:00 TS -24.5000 53.7000 spur-merge 393 393 _________O____ -1 -24.5000 53.7000 TC 5 145
1904042S14055 1904 2 SI MM NOT_NAMED 1904-02-15 15:00:00 TS -24.7075 53.8500 spur-merge 406 406 _________P____ -1 -24.7075 53.8500 TC 5 146
1904042S14055 1904 2 SI MM NOT_NAMED 1904-02-15 18:00:00 TS -24.9000 54.0000 spur-merge 423 423 _________O____ -1 -24.9000 54.0000 TC 4 143
1904042S14055 1904 2 SI MM NOT_NAMED 1904-02-15 21:00:00 TS -25.0600 54.1500 spur-merge 441 437 _________P____ -1 -25.0600 54.1500 TC 4 138
1904042S14055 1904 2 SI MM NOT_NAMED 1904-02-16 00:00:00 TS -25.2000 54.3000 spur-merge 444 _________O____ -1 -25.2000 54.3000 TC 4 135

About IBTrACS Database

This database is a web-friendly format of International Best Track Archive for Climate Stewardship (IBTrACS), a global best track data archive curated by NOAA dating back to 1842.

Updated: 2021-12-03